createdAt,value
2022-09-13T00:02:20.451Z,16.50
2022-09-13T00:04:48.399Z,16.50
2022-09-13T00:07:16.354Z,16.50
2022-09-13T00:09:44.693Z,16.50
2022-09-13T00:12:12.611Z,16.50
2022-09-13T00:14:40.512Z,16.50
2022-09-13T00:17:08.428Z,16.50
2022-09-13T00:19:37.728Z,16.50
2022-09-13T00:22:06.421Z,16.50
2022-09-13T00:24:34.450Z,16.50
2022-09-13T00:27:02.631Z,16.50
2022-09-13T00:29:30.553Z,16.50
2022-09-13T00:31:58.749Z,16.50
2022-09-13T00:34:26.725Z,16.50
2022-09-13T00:36:55.970Z,16.50
2022-09-13T00:39:23.927Z,16.50
2022-09-13T00:41:51.833Z,16.50
2022-09-13T00:44:51.154Z,16.50
2022-09-13T00:47:24.040Z,16.50
2022-09-13T00:49:55.283Z,16.50
2022-09-13T00:52:28.611Z,16.50
2022-09-13T00:55:01.616Z,16.50
2022-09-13T00:57:31.928Z,16.50
2022-09-13T01:00:08.794Z,16.50
2022-09-13T01:02:36.998Z,16.50
2022-09-13T01:05:05.621Z,16.50
2022-09-13T01:07:35.342Z,16.50
2022-09-13T01:10:07.631Z,16.40
2022-09-13T01:12:44.044Z,16.40
2022-09-13T01:15:12.182Z,16.40
2022-09-13T01:17:40.879Z,16.40
2022-09-13T01:20:10.263Z,16.40
2022-09-13T01:23:14.833Z,16.40
2022-09-13T01:26:19.112Z,16.40
2022-09-13T01:29:06.874Z,16.40
2022-09-13T01:31:41.719Z,16.40
2022-09-13T01:34:22.217Z,16.40
2022-09-13T01:37:14.401Z,16.40
2022-09-13T01:39:58.528Z,16.50
2022-09-13T01:42:41.398Z,16.50
2022-09-13T01:45:23.223Z,16.50
2022-09-13T01:47:57.643Z,16.40
2022-09-13T01:50:38.456Z,16.50
2022-09-13T01:53:12.347Z,16.40
2022-09-13T01:55:45.224Z,16.40
2022-09-13T01:58:20.969Z,16.40
2022-09-13T02:00:55.075Z,16.40
2022-09-13T02:03:31.138Z,16.30
2022-09-13T02:06:02.418Z,16.30
2022-09-13T02:08:38.735Z,16.20
2022-09-13T02:11:10.592Z,16.10
2022-09-13T02:13:42.294Z,16.10
2022-09-13T02:16:15.993Z,16.20
2022-09-13T02:18:48.691Z,16.20
2022-09-13T02:21:22.491Z,16.20
2022-09-13T02:23:53.635Z,16.20
2022-09-13T02:26:23.689Z,16.20
2022-09-13T02:28:53.905Z,16.20
2022-09-13T02:31:29.553Z,16.10
2022-09-13T02:34:04.332Z,16.10
2022-09-13T02:36:36.412Z,16.10
2022-09-13T02:39:08.557Z,16.00
2022-09-13T02:41:43.098Z,16.00
2022-09-13T02:44:14.073Z,16.00
2022-09-13T02:47:13.048Z,16.00
2022-09-13T02:49:53.887Z,15.90
2022-09-13T02:52:31.095Z,16.00
2022-09-13T02:55:04.629Z,15.90
2022-09-13T02:57:39.176Z,15.90
2022-09-13T03:00:08.408Z,15.90
2022-09-13T03:02:38.828Z,15.90
2022-09-13T03:05:08.864Z,15.90
2022-09-13T03:07:36.834Z,15.90
2022-09-13T03:10:09.423Z,16.00
2022-09-13T03:12:54.553Z,16.00
2022-09-13T03:15:31.265Z,16.00
2022-09-13T03:18:17.070Z,16.00
2022-09-13T03:20:57.603Z,16.00
2022-09-13T03:23:47.347Z,16.00
2022-09-13T03:26:33.623Z,16.00
2022-09-13T03:29:13.587Z,15.90
2022-09-13T03:31:50.419Z,15.90
2022-09-13T03:34:27.391Z,15.90
2022-09-13T03:36:59.385Z,15.90
2022-09-13T03:39:36.145Z,15.90
2022-09-13T03:42:11.594Z,15.90
2022-09-13T03:44:43.395Z,15.90
2022-09-13T03:47:12.385Z,15.80
2022-09-13T03:49:40.750Z,15.90
2022-09-13T03:52:10.826Z,15.90
2022-09-13T03:54:39.426Z,15.90
2022-09-13T03:57:09.679Z,15.90
2022-09-13T03:59:38.834Z,15.90
2022-09-13T04:02:08.733Z,15.90
2022-09-13T04:04:36.832Z,15.90
2022-09-13T04:07:04.794Z,15.90
2022-09-13T04:09:34.046Z,15.90
2022-09-13T04:12:02.143Z,15.90
2022-09-13T04:14:30.249Z,15.90
2022-09-13T04:16:59.025Z,15.90
2022-09-13T04:19:27.229Z,16.00
2022-09-13T04:21:56.482Z,16.00
2022-09-13T04:24:26.897Z,16.00
2022-09-13T04:26:57.303Z,16.00
2022-09-13T04:29:26.892Z,16.00
2022-09-13T04:31:55.819Z,16.00
2022-09-13T04:34:24.099Z,16.00
2022-09-13T04:36:53.479Z,15.90
2022-09-13T04:39:22.124Z,15.90
2022-09-13T04:41:51.860Z,15.90
2022-09-13T04:44:21.642Z,15.90
2022-09-13T04:46:50.796Z,15.90
2022-09-13T04:49:20.100Z,15.90
2022-09-13T04:51:48.426Z,15.90
2022-09-13T04:54:16.773Z,15.90
2022-09-13T04:56:45.391Z,15.90
2022-09-13T04:59:13.782Z,15.90
2022-09-13T05:01:43.783Z,16.00
2022-09-13T05:04:12.040Z,15.90
2022-09-13T05:06:39.976Z,15.90
2022-09-13T05:09:07.961Z,15.90
2022-09-13T05:11:35.885Z,15.90
2022-09-13T05:14:04.102Z,15.90
2022-09-13T05:16:33.487Z,15.80
2022-09-13T05:19:02.988Z,15.80
2022-09-13T05:21:31.877Z,15.80
2022-09-13T05:24:00.460Z,15.70
2022-09-13T05:26:31.175Z,15.70
2022-09-13T05:28:59.217Z,15.70
2022-09-13T05:31:29.230Z,15.80
2022-09-13T05:33:58.717Z,15.80
2022-09-13T05:36:28.855Z,15.80
2022-09-13T05:39:25.913Z,15.90
2022-09-13T05:41:45.496Z,15.90
2022-09-13T05:44:13.993Z,16.00
2022-09-13T05:46:42.232Z,16.00
2022-09-13T05:49:10.367Z,16.10
2022-09-13T05:51:39.671Z,16.20
2022-09-13T05:54:07.604Z,16.30
2022-09-13T05:56:35.707Z,16.30
2022-09-13T05:59:03.612Z,16.40
2022-09-13T06:01:31.817Z,16.50
2022-09-13T06:04:00.657Z,16.60
2022-09-13T06:06:28.661Z,16.60
2022-09-13T06:08:58.713Z,16.70
2022-09-13T06:11:27.431Z,16.80
2022-09-13T06:13:55.419Z,16.80
2022-09-13T06:16:24.363Z,16.80
2022-09-13T06:18:52.371Z,16.90
2022-09-13T06:21:25.781Z,16.90
2022-09-13T06:23:57.672Z,17.00
2022-09-13T06:26:27.852Z,17.00
2022-09-13T06:28:57.428Z,17.10
2022-09-13T06:31:27.632Z,17.10
2022-09-13T06:34:00.456Z,17.10
2022-09-13T06:36:28.946Z,17.20
2022-09-13T06:39:00.529Z,17.30
2022-09-13T06:41:28.785Z,17.30
2022-09-13T06:43:58.542Z,17.40
2022-09-13T06:46:27.924Z,17.40
2022-09-13T06:48:57.768Z,17.50
2022-09-13T06:51:26.562Z,17.50
2022-09-13T06:53:56.621Z,17.50
2022-09-13T06:56:27.436Z,17.60
2022-09-13T06:58:58.504Z,17.60
2022-09-13T07:01:29.168Z,17.70
2022-09-13T07:04:00.265Z,17.70
2022-09-13T07:06:30.114Z,17.70
2022-09-13T07:08:59.838Z,17.70
2022-09-13T07:11:32.858Z,17.80
2022-09-13T07:14:01.342Z,17.80
2022-09-13T07:16:30.851Z,17.80
2022-09-13T07:19:00.054Z,17.90
2022-09-13T07:21:29.240Z,17.90
2022-09-13T07:23:58.229Z,18.00
2022-09-13T07:26:28.443Z,18.00
2022-09-13T07:28:58.387Z,18.00
2022-09-13T07:31:28.850Z,18.00
2022-09-13T07:33:58.475Z,18.00
2022-09-13T07:36:27.864Z,18.00
2022-09-13T07:38:56.149Z,18.00
2022-09-13T07:41:26.106Z,18.00
2022-09-13T07:43:55.835Z,18.00
2022-09-13T07:46:25.988Z,18.10
2022-09-13T07:48:55.850Z,18.10
2022-09-13T07:51:25.154Z,18.20
2022-09-13T07:53:57.501Z,18.20
2022-09-13T07:56:27.991Z,18.20
2022-09-13T07:59:00.745Z,18.30
2022-09-13T08:01:30.220Z,18.40
2022-09-13T08:03:59.989Z,18.40
2022-09-13T08:06:29.578Z,18.40
2022-09-13T08:08:58.069Z,18.40
2022-09-13T08:11:28.526Z,18.50
2022-09-13T08:13:57.909Z,18.50
2022-09-13T08:16:27.281Z,18.60
2022-09-13T08:18:56.814Z,18.60
2022-09-13T08:21:25.895Z,18.60
2022-09-13T08:23:59.678Z,18.60
2022-09-13T08:26:28.061Z,18.60
2022-09-13T08:29:01.488Z,18.50
2022-09-13T08:31:29.856Z,18.60
2022-09-13T08:33:58.537Z,18.70
2022-09-13T08:36:27.606Z,18.80
2022-09-13T08:38:59.022Z,18.90
2022-09-13T08:41:52.433Z,18.90
2022-09-13T08:44:28.327Z,19.00
2022-09-13T08:47:00.775Z,19.00
2022-09-13T08:49:33.063Z,19.20
2022-09-13T08:52:05.971Z,19.20
2022-09-13T08:54:34.225Z,19.30
2022-09-13T08:57:09.440Z,19.50
2022-09-13T08:59:51.839Z,19.40
2022-09-13T09:02:42.064Z,19.40
2022-09-13T09:05:17.179Z,19.30
2022-09-13T09:07:48.450Z,19.30
2022-09-13T09:10:19.310Z,19.30
2022-09-13T09:12:50.835Z,19.50
2022-09-13T09:15:24.594Z,19.60
2022-09-13T09:17:59.921Z,19.70
2022-09-13T09:20:33.320Z,19.80
2022-09-13T09:23:04.343Z,19.80
2022-09-13T09:25:33.187Z,19.90
2022-09-13T09:28:02.328Z,19.90
2022-09-13T09:30:46.632Z,20.00
2022-09-13T09:33:31.732Z,19.80
2022-09-13T09:36:04.763Z,19.80
2022-09-13T09:38:41.224Z,19.80
2022-09-13T09:41:22.775Z,19.80
2022-09-13T09:43:56.683Z,19.80
2022-09-13T09:46:30.141Z,19.90
2022-09-13T09:49:27.746Z,20.30
2022-09-13T09:51:57.163Z,20.50
2022-09-13T09:54:29.072Z,20.80
2022-09-13T09:56:57.246Z,21.10
2022-09-13T09:59:31.168Z,21.20
2022-09-13T10:02:01.948Z,21.20
2022-09-13T10:04:30.860Z,21.30
2022-09-13T10:07:25.204Z,21.20
2022-09-13T10:09:59.664Z,20.90
2022-09-13T10:12:29.357Z,20.80
2022-09-13T10:15:07.111Z,20.80
2022-09-13T10:17:36.919Z,21.00
2022-09-13T10:20:23.376Z,20.80
2022-09-13T10:23:21.430Z,21.00
2022-09-13T10:26:07.620Z,21.20
2022-09-13T10:28:38.038Z,21.10
2022-09-13T10:31:13.767Z,21.30
2022-09-13T10:33:59.608Z,21.50
2022-09-13T10:36:52.492Z,21.60
2022-09-13T10:39:22.905Z,21.80
2022-09-13T10:41:53.898Z,22.10
2022-09-13T10:44:29.641Z,22.00
2022-09-13T10:47:00.418Z,21.90
2022-09-13T10:49:42.029Z,22.10
2022-09-13T10:52:34.489Z,22.10
2022-09-13T10:55:34.196Z,22.10
2022-09-13T10:58:19.254Z,21.70
2022-09-13T11:01:17.807Z,21.50
2022-09-13T11:04:02.431Z,21.50
2022-09-13T11:06:42.284Z,21.20
2022-09-13T11:09:15.813Z,21.10
2022-09-13T11:11:53.272Z,21.10
2022-09-13T11:14:43.645Z,21.00
2022-09-13T11:17:22.105Z,21.00
2022-09-13T11:20:14.662Z,21.00
2022-09-13T11:23:02.155Z,21.00
2022-09-13T11:25:57.118Z,20.90
2022-09-13T11:28:36.494Z,20.90
2022-09-13T11:31:25.739Z,20.90
2022-09-13T11:34:10.185Z,21.00
2022-09-13T11:37:06.447Z,21.30
2022-09-13T11:39:39.883Z,21.50
2022-09-13T11:42:28.130Z,21.70
2022-09-13T11:45:21.866Z,22.00
2022-09-13T11:48:22.036Z,22.20
2022-09-13T11:50:59.013Z,22.20
2022-09-13T11:54:04.003Z,22.60
2022-09-13T11:56:37.786Z,22.70
2022-09-13T12:02:01.941Z,23.10
2022-09-13T12:04:34.230Z,23.30
2022-09-13T12:07:05.996Z,23.50
2022-09-13T12:09:39.451Z,23.10
2022-09-13T12:12:12.807Z,22.90
2022-09-13T12:14:47.464Z,23.00
2022-09-13T12:17:26.284Z,22.90
2022-09-13T12:19:58.796Z,22.80
2022-09-13T12:22:31.123Z,22.80
2022-09-13T12:25:03.737Z,22.70
2022-09-13T12:27:40.591Z,22.50
2022-09-13T12:30:16.318Z,22.30
2022-09-13T12:32:46.096Z,22.30
2022-09-13T12:35:23.088Z,22.40
2022-09-13T12:38:07.105Z,22.70
2022-09-13T12:41:09.041Z,22.90
2022-09-13T12:44:02.701Z,22.70
2022-09-13T12:47:15.578Z,22.50
2022-09-13T12:50:21.645Z,22.70
2022-09-13T12:53:04.002Z,22.70
2022-09-13T12:56:03.999Z,23.10
2022-09-13T12:58:53.996Z,23.40
2022-09-13T13:01:24.164Z,23.90
2022-09-13T13:03:55.701Z,24.10
2022-09-13T13:06:33.324Z,24.60
2022-09-13T13:09:05.503Z,24.80
2022-09-13T13:11:44.689Z,24.80
2022-09-13T13:17:41.840Z,24.90
2022-09-13T13:20:42.946Z,25.20
2022-09-13T13:23:24.702Z,25.20
2022-09-13T13:26:11.800Z,24.90
2022-09-13T13:29:13.983Z,24.60
2022-09-13T13:31:45.037Z,24.30
2022-09-13T13:34:32.324Z,24.00
2022-09-13T13:37:06.676Z,23.70
2022-09-13T13:39:38.154Z,23.50
2022-09-13T13:42:26.493Z,23.20
2022-09-13T13:45:18.488Z,23.20
2022-09-13T13:48:16.043Z,23.50
2022-09-13T13:51:19.369Z,23.90
2022-09-13T13:53:56.999Z,24.20
2022-09-13T13:56:48.804Z,24.30
2022-09-13T13:59:24.219Z,24.20
2022-09-13T14:01:59.175Z,24.30
2022-09-13T14:04:48.676Z,24.40
2022-09-13T14:07:31.773Z,24.40
2022-09-13T14:10:07.093Z,24.40
2022-09-13T14:12:49.017Z,24.40
2022-09-13T14:15:32.433Z,24.80
2022-09-13T14:18:32.965Z,24.70
2022-09-13T14:21:03.425Z,24.90
2022-09-13T14:23:32.086Z,25.00
2022-09-13T14:26:02.767Z,24.90
2022-09-13T14:28:32.951Z,24.80
2022-09-13T14:31:01.232Z,24.90
2022-09-13T14:33:34.990Z,24.90
2022-09-13T14:36:06.795Z,25.00
2022-09-13T14:38:36.386Z,24.80
2022-09-13T14:41:15.457Z,24.80
2022-09-13T14:43:44.296Z,24.50
2022-09-13T14:46:17.964Z,24.50
2022-09-13T14:48:51.653Z,24.40
2022-09-13T14:51:24.287Z,24.40
2022-09-13T14:53:55.115Z,24.10
2022-09-13T14:56:37.818Z,24.10
2022-09-13T14:59:14.623Z,24.00
2022-09-13T15:01:42.543Z,23.80
2022-09-13T15:04:10.665Z,23.50
2022-09-13T15:06:41.152Z,23.30
2022-09-13T15:09:25.688Z,23.20
2022-09-13T15:12:02.752Z,23.00
2022-09-13T15:14:32.283Z,23.10
2022-09-13T15:17:07.951Z,23.10
2022-09-13T15:19:43.097Z,23.10
2022-09-13T15:22:16.774Z,23.00
2022-09-13T15:24:48.022Z,22.90
2022-09-13T15:27:31.874Z,22.70
2022-09-13T15:30:03.616Z,22.70
2022-09-13T15:32:34.690Z,22.80
2022-09-13T15:35:03.382Z,22.90
2022-09-13T15:37:35.156Z,22.90
2022-09-13T15:40:21.167Z,22.80
2022-09-13T15:42:52.117Z,22.80
2022-09-13T15:45:21.767Z,22.70
2022-09-13T15:47:51.670Z,22.70
2022-09-13T15:50:22.493Z,22.80
2022-09-13T15:52:50.537Z,22.90
2022-09-13T15:55:18.542Z,22.80
2022-09-13T15:57:47.031Z,22.70
2022-09-13T16:00:20.146Z,22.70
2022-09-13T16:02:48.110Z,22.80
2022-09-13T16:05:16.529Z,22.80
2022-09-13T16:07:44.868Z,22.60
2022-09-13T16:10:15.447Z,22.50
2022-09-13T16:12:43.712Z,22.40
2022-09-13T16:15:12.713Z,22.30
2022-09-13T16:17:42.814Z,22.20
2022-09-13T16:20:14.033Z,22.20
2022-09-13T16:22:42.237Z,22.30
2022-09-13T16:25:12.942Z,22.30
2022-09-13T16:27:41.318Z,22.20
2022-09-13T16:30:11.500Z,22.20
2022-09-13T16:32:41.266Z,22.10
2022-09-13T16:35:09.919Z,22.00
2022-09-13T16:37:37.949Z,21.80
2022-09-13T16:40:06.799Z,21.60
2022-09-13T16:42:36.032Z,21.40
2022-09-13T16:45:04.141Z,21.30
2022-09-13T16:47:32.117Z,21.20
2022-09-13T16:50:01.478Z,21.10
2022-09-13T16:52:30.178Z,21.10
2022-09-13T16:54:58.042Z,21.00
2022-09-13T16:57:26.354Z,20.90
2022-09-13T16:59:56.439Z,20.70
2022-09-13T17:02:24.496Z,20.60
2022-09-13T17:04:52.798Z,20.50
2022-09-13T17:07:22.127Z,20.40
2022-09-13T17:09:50.069Z,20.30
2022-09-13T17:12:18.027Z,20.20
2022-09-13T17:14:47.368Z,20.20
2022-09-13T17:17:16.904Z,20.10
2022-09-13T17:19:45.707Z,20.00
2022-09-13T17:22:13.626Z,19.90
2022-09-13T17:24:43.459Z,19.70
2022-09-13T17:27:12.001Z,19.60
2022-09-13T17:29:39.944Z,19.50
2022-09-13T17:32:07.994Z,19.20
2022-09-13T17:34:35.936Z,19.20
2022-09-13T17:37:05.718Z,19.20
2022-09-13T17:39:34.112Z,19.10
2022-09-13T17:42:03.558Z,19.00
2022-09-13T17:44:31.458Z,18.90
2022-09-13T17:46:59.426Z,18.70
2022-09-13T17:49:27.338Z,18.70
2022-09-13T17:51:55.791Z,18.50
2022-09-13T17:54:23.841Z,18.30
2022-09-13T17:56:52.146Z,18.20
2022-09-13T18:01:59.272Z,18.00
2022-09-13T18:04:27.373Z,17.90
2022-09-13T18:06:55.945Z,17.80
2022-09-13T18:09:24.568Z,17.80
2022-09-13T18:11:52.932Z,17.70
2022-09-13T18:14:21.531Z,17.60
2022-09-13T18:16:55.409Z,17.50
2022-09-13T18:19:39.492Z,17.50
2022-09-13T18:22:12.924Z,17.50
2022-09-13T18:24:40.958Z,17.40
2022-09-13T18:27:09.054Z,17.40
2022-09-13T18:29:37.086Z,17.40
2022-09-13T18:32:05.090Z,17.30
2022-09-13T18:34:34.398Z,17.40
2022-09-13T18:37:02.572Z,17.40
2022-09-13T18:39:30.563Z,17.40
2022-09-13T18:41:58.518Z,17.30
2022-09-13T18:44:30.200Z,17.30
2022-09-13T18:46:58.204Z,17.30
2022-09-13T18:49:26.292Z,17.20
2022-09-13T18:51:55.564Z,17.30
2022-09-13T18:54:23.570Z,17.20
2022-09-13T18:56:51.664Z,17.10
2022-09-13T18:59:19.758Z,17.10
2022-09-13T19:01:48.963Z,17.10
2022-09-13T19:04:19.104Z,17.00
2022-09-13T19:06:49.144Z,17.00
2022-09-13T19:09:20.715Z,16.90
2022-09-13T19:11:50.847Z,16.90
2022-09-13T19:14:21.802Z,16.90
2022-09-13T19:16:51.505Z,16.90
2022-09-13T19:19:20.653Z,16.90
2022-09-13T19:21:49.887Z,17.00
2022-09-13T19:24:21.238Z,17.00
2022-09-13T19:26:52.267Z,17.00
2022-09-13T19:29:23.617Z,17.00
2022-09-13T19:31:56.019Z,17.00
2022-09-13T19:34:25.712Z,17.00
2022-09-13T19:36:58.161Z,17.00
2022-09-13T19:39:30.346Z,17.00
2022-09-13T19:42:00.702Z,16.90
2022-09-13T19:44:29.450Z,16.80
2022-09-13T19:47:29.591Z,16.80
2022-09-13T19:49:45.824Z,16.70
2022-09-13T19:52:13.935Z,16.60
2022-09-13T19:54:43.300Z,16.60
2022-09-13T19:57:11.283Z,16.60
2022-09-13T19:59:39.305Z,16.60
2022-09-13T20:02:07.218Z,16.50
2022-09-13T20:04:35.528Z,16.40
2022-09-13T20:07:03.567Z,16.40
2022-09-13T20:09:31.925Z,16.30
2022-09-13T20:12:01.330Z,16.30
2022-09-13T20:14:29.361Z,16.20
2022-09-13T20:16:57.911Z,16.10
2022-09-13T20:19:46.221Z,16.10
2022-09-13T20:22:14.311Z,16.00
2022-09-13T20:24:42.235Z,16.00
2022-09-13T20:27:11.605Z,15.90
2022-09-13T20:29:40.312Z,15.80
2022-09-13T20:32:09.392Z,15.80
2022-09-13T20:34:37.755Z,15.70
2022-09-13T20:37:05.861Z,15.60
2022-09-13T20:39:33.753Z,15.50
2022-09-13T20:42:01.705Z,15.50
2022-09-13T20:44:30.994Z,15.50
2022-09-13T20:46:58.958Z,15.40
2022-09-13T20:49:27.014Z,15.40
2022-09-13T20:51:55.026Z,15.30
2022-09-13T20:54:23.368Z,15.30
2022-09-13T20:56:51.383Z,15.20
2022-09-13T20:59:21.102Z,15.20
2022-09-13T21:01:50.745Z,15.10
2022-09-13T21:04:18.890Z,15.00
2022-09-13T21:07:00.780Z,15.00
2022-09-13T21:09:28.929Z,14.90
2022-09-13T21:11:57.231Z,14.90
2022-09-13T21:14:25.414Z,14.90
2022-09-13T21:16:56.081Z,14.80
2022-09-13T21:19:24.805Z,14.70
2022-09-13T21:21:52.942Z,14.70
2022-09-13T21:24:21.038Z,14.60
2022-09-13T21:26:49.743Z,14.50
2022-09-13T21:29:17.805Z,14.50
2022-09-13T21:31:46.042Z,14.50
2022-09-13T21:34:16.875Z,14.40
2022-09-13T21:36:46.374Z,14.30
2022-09-13T21:39:15.089Z,14.30
2022-09-13T21:41:44.603Z,14.30
2022-09-13T21:44:12.692Z,14.20
2022-09-13T21:46:41.672Z,14.20
2022-09-13T21:49:11.429Z,14.30
2022-09-13T21:51:42.919Z,14.20
2022-09-13T21:54:14.079Z,14.20
2022-09-13T21:56:45.124Z,14.20
2022-09-13T21:59:15.667Z,14.20
2022-09-13T22:01:46.790Z,14.10
2022-09-13T22:04:17.946Z,14.10
2022-09-13T22:06:51.541Z,14.10
2022-09-13T22:09:20.635Z,14.10
2022-09-13T22:11:50.582Z,14.10
2022-09-13T22:14:21.758Z,14.10
2022-09-13T22:16:52.773Z,14.00
2022-09-13T22:19:23.574Z,14.00
2022-09-13T22:21:56.323Z,14.00
2022-09-13T22:24:26.149Z,14.00
2022-09-13T22:26:56.384Z,13.90
2022-09-13T22:29:24.733Z,13.90
2022-09-13T22:31:53.318Z,13.90
2022-09-13T22:34:23.386Z,13.80
2022-09-13T22:36:54.922Z,13.80
2022-09-13T22:39:23.102Z,13.80
2022-09-13T22:41:51.220Z,13.80
2022-09-13T22:44:19.356Z,13.90
2022-09-13T22:46:48.337Z,13.90
2022-09-13T22:49:18.677Z,13.80
2022-09-13T22:51:48.638Z,13.80
2022-09-13T22:54:19.890Z,13.80
2022-09-13T22:56:48.585Z,13.80
2022-09-13T22:59:19.365Z,13.70
2022-09-13T23:01:47.971Z,13.70
2022-09-13T23:04:16.522Z,13.70
2022-09-13T23:06:44.913Z,13.70
2022-09-13T23:09:15.567Z,13.60
2022-09-13T23:11:45.227Z,13.60
2022-09-13T23:14:15.594Z,13.50
2022-09-13T23:16:45.558Z,13.50
2022-09-13T23:19:14.829Z,13.40
2022-09-13T23:21:43.693Z,13.50
2022-09-13T23:24:13.900Z,13.50
2022-09-13T23:26:42.449Z,13.40
2022-09-13T23:29:15.111Z,13.30
2022-09-13T23:31:43.742Z,13.20
2022-09-13T23:34:14.383Z,13.20
2022-09-13T23:36:44.144Z,13.20
2022-09-13T23:39:16.344Z,13.10
2022-09-13T23:41:45.164Z,13.10
2022-09-13T23:44:14.849Z,13.00
2022-09-13T23:46:43.260Z,12.90
2022-09-13T23:49:11.349Z,12.90
2022-09-13T23:51:39.884Z,12.90
2022-09-13T23:54:08.657Z,13.00
2022-09-13T23:56:37.417Z,12.90
2022-09-13T23:59:06.263Z,12.80
